createdAt,value
2019-04-27T00:01:49.914Z,74.84
2019-04-27T00:04:38.042Z,74.81
2019-04-27T00:07:21.212Z,74.83
2019-04-27T00:09:55.869Z,74.53
2019-04-27T00:12:26.542Z,74.49
2019-04-27T00:14:56.124Z,74.54
2019-04-27T00:17:56.904Z,74.43
2019-04-27T00:20:53.595Z,74.33
2019-04-27T00:23:23.902Z,74.30
2019-04-27T00:25:53.026Z,74.40
2019-04-27T00:28:23.014Z,74.39
2019-04-27T00:30:53.108Z,74.28
2019-04-27T00:33:23.746Z,74.25
2019-04-27T00:36:03.940Z,74.16
2019-04-27T00:38:57.240Z,74.21
2019-04-27T00:41:26.368Z,74.18
2019-04-27T00:43:55.499Z,74.33
2019-04-27T00:46:24.597Z,74.26
2019-04-27T00:48:53.912Z,74.51
2019-04-27T00:51:23.223Z,74.58
2019-04-27T00:53:54.871Z,74.99
2019-04-27T00:56:31.824Z,75.14
2019-04-27T00:59:18.376Z,75.07
2019-04-27T01:02:03.766Z,75.02
2019-04-27T01:04:34.007Z,75.02
2019-04-27T01:07:04.039Z,75.19
2019-04-27T01:09:33.876Z,75.10
2019-04-27T01:12:03.678Z,74.93
2019-04-27T01:14:34.299Z,74.78
2019-04-27T01:17:03.489Z,74.74
2019-04-27T01:19:32.599Z,74.66
2019-04-27T01:22:01.770Z,74.65
2019-04-27T01:24:30.924Z,74.67
2019-04-27T01:27:19.092Z,74.71
2019-04-27T01:29:49.993Z,74.58
2019-04-27T01:32:20.782Z,74.48
2019-04-27T01:34:50.000Z,74.50
2019-04-27T01:37:19.720Z,74.44
2019-04-27T01:39:50.459Z,74.34
2019-04-27T01:42:19.699Z,74.94
2019-04-27T01:44:49.600Z,75.15
2019-04-27T01:47:19.817Z,75.08
2019-04-27T01:49:49.546Z,75.00
2019-04-27T01:52:19.426Z,74.91
2019-04-27T01:54:49.549Z,74.80
2019-04-27T01:57:19.425Z,74.63
2019-04-27T01:59:49.020Z,74.41
2019-04-27T02:02:39.926Z,74.51
2019-04-27T02:05:26.818Z,74.80
2019-04-27T02:07:55.962Z,75.13
2019-04-27T02:10:25.106Z,75.06
2019-04-27T02:12:54.246Z,75.07
2019-04-27T02:15:23.375Z,75.17
2019-04-27T02:17:52.513Z,74.76
2019-04-27T02:20:21.659Z,74.65
2019-04-27T02:22:50.849Z,74.76
2019-04-27T02:25:21.112Z,74.99
2019-04-27T02:27:54.102Z,74.68
2019-04-27T02:30:41.087Z,74.71
2019-04-27T02:33:30.233Z,74.72
2019-04-27T02:36:00.368Z,74.88
2019-04-27T02:38:30.521Z,74.98
2019-04-27T02:41:02.485Z,75.12
2019-04-27T02:43:39.979Z,75.38
2019-04-27T02:46:09.690Z,75.60
2019-04-27T02:48:52.994Z,75.84
2019-04-27T02:51:11.681Z,75.79
2019-04-27T02:54:00.515Z,75.83
2019-04-27T02:56:30.504Z,75.92
2019-04-27T02:58:59.971Z,75.90
2019-04-27T03:01:31.532Z,76.00
2019-04-27T03:04:00.740Z,75.89
2019-04-27T03:06:30.315Z,75.96
2019-04-27T03:09:00.438Z,75.93
2019-04-27T03:11:31.434Z,75.67
2019-04-27T03:14:32.433Z,75.75
2019-04-27T03:17:22.787Z,75.76
2019-04-27T03:19:56.921Z,75.58
2019-04-27T03:22:33.837Z,75.62
2019-04-27T03:25:21.960Z,75.50
2019-04-27T03:27:52.730Z,75.18
2019-04-27T03:30:23.472Z,75.34
2019-04-27T03:32:56.603Z,75.25
2019-04-27T03:35:23.728Z,75.25
2019-04-27T03:37:52.866Z,75.17
2019-04-27T03:40:22.027Z,75.10
2019-04-27T03:42:52.801Z,75.09
2019-04-27T03:45:21.959Z,75.15
2019-04-27T03:47:51.091Z,75.07
2019-04-27T03:50:25.802Z,75.33
2019-04-27T03:53:29.820Z,75.17
2019-04-27T03:56:16.285Z,75.13
2019-04-27T03:58:49.815Z,75.50
2019-04-27T04:01:20.338Z,75.70
2019-04-27T04:03:50.227Z,75.78
2019-04-27T04:06:19.683Z,75.53
2019-04-27T04:08:50.599Z,75.44
2019-04-27T04:11:36.080Z,75.46
2019-04-27T04:14:10.129Z,75.54
2019-04-27T04:16:44.373Z,75.50
2019-04-27T04:19:14.249Z,75.42
2019-04-27T04:21:43.378Z,75.52
2019-04-27T04:24:12.627Z,75.75
2019-04-27T04:26:41.745Z,75.94
2019-04-27T04:29:10.911Z,76.15
2019-04-27T04:31:40.651Z,76.07
2019-04-27T04:34:12.063Z,75.92
2019-04-27T04:36:42.476Z,76.01
2019-04-27T04:39:12.526Z,76.13
2019-04-27T04:41:53.755Z,76.05
2019-04-27T04:44:40.346Z,75.85
2019-04-27T04:47:30.612Z,75.72
2019-04-27T04:50:11.136Z,75.78
2019-04-27T04:52:31.232Z,75.72
2019-04-27T04:55:02.739Z,75.45
2019-04-27T04:57:31.362Z,75.48
2019-04-27T05:00:00.594Z,75.53
2019-04-27T05:02:29.927Z,75.51
2019-04-27T05:04:59.154Z,75.68
2019-04-27T05:07:29.753Z,75.56
2019-04-27T05:09:58.913Z,75.61
2019-04-27T05:12:28.752Z,75.87
2019-04-27T05:14:59.059Z,75.90
2019-04-27T05:17:29.650Z,75.75
2019-04-27T05:19:59.134Z,75.68
2019-04-27T05:22:29.618Z,75.53
2019-04-27T05:25:01.869Z,75.47
2019-04-27T05:27:31.739Z,75.38
2019-04-27T05:30:01.557Z,75.26
2019-04-27T05:32:30.751Z,75.18
2019-04-27T05:34:59.917Z,75.22
2019-04-27T05:37:31.639Z,75.45
2019-04-27T05:39:59.917Z,75.34
2019-04-27T05:42:29.053Z,75.31
2019-04-27T05:45:19.989Z,75.33
2019-04-27T05:47:54.881Z,75.40
2019-04-27T05:50:35.523Z,75.91
2019-04-27T05:52:54.823Z,76.68
2019-04-27T05:55:23.974Z,76.30
2019-04-27T05:57:53.234Z,75.64
2019-04-27T06:00:22.793Z,76.38
2019-04-27T06:02:52.255Z,77.35
2019-04-27T06:05:22.930Z,76.96
2019-04-27T06:07:52.193Z,76.49
2019-04-27T06:10:21.339Z,75.98
2019-04-27T06:12:50.468Z,76.15
2019-04-27T06:15:19.909Z,76.80
2019-04-27T06:17:49.176Z,76.00
2019-04-27T06:20:18.838Z,75.79
2019-04-27T06:22:48.878Z,76.04
2019-04-27T06:25:21.194Z,76.16
2019-04-27T06:27:49.580Z,76.71
2019-04-27T06:30:19.359Z,76.83
2019-04-27T06:32:49.488Z,77.38
2019-04-27T06:35:18.723Z,76.06
2019-04-27T06:37:49.253Z,75.48
2019-04-27T06:40:18.831Z,75.34
2019-04-27T06:42:48.673Z,74.91
2019-04-27T06:45:19.567Z,74.26
2019-04-27T06:47:51.056Z,75.60
2019-04-27T06:50:19.765Z,75.27
2019-04-27T06:52:49.161Z,74.86
2019-04-27T06:55:18.836Z,75.63
2019-04-27T06:57:49.044Z,75.60
2019-04-27T07:00:19.022Z,76.83
2019-04-27T07:02:49.238Z,76.00
2019-04-27T07:05:20.196Z,75.51
2019-04-27T07:07:49.488Z,75.32
2019-04-27T07:10:18.809Z,75.15
2019-04-27T07:12:49.043Z,76.23
2019-04-27T07:15:20.485Z,75.21
2019-04-27T07:17:49.718Z,74.46
2019-04-27T07:20:18.983Z,73.14
2019-04-27T07:22:49.651Z,73.46
2019-04-27T07:25:19.286Z,72.24
2019-04-27T07:27:49.363Z,71.15
2019-04-27T07:30:19.685Z,69.67
2019-04-27T07:32:49.008Z,66.95
2019-04-27T07:35:19.641Z,58.74
2019-04-27T07:37:48.999Z,52.73
2019-04-27T07:40:18.788Z,45.49
2019-04-27T07:42:51.275Z,42.14
2019-04-27T07:45:29.499Z,41.97
2019-04-27T07:47:59.176Z,44.19
2019-04-27T07:50:29.045Z,46.52
2019-04-27T07:52:58.774Z,44.27
2019-04-27T07:55:28.805Z,40.86
2019-04-27T07:57:59.706Z,37.96
2019-04-27T08:00:29.048Z,37.25
2019-04-27T08:02:58.637Z,34.24
2019-04-27T08:05:29.164Z,34.42
2019-04-27T08:07:59.993Z,35.84
2019-04-27T08:10:29.365Z,36.33
2019-04-27T08:12:59.733Z,39.40
2019-04-27T08:15:29.201Z,41.48
2019-04-27T08:17:59.177Z,41.46
2019-04-27T08:20:29.396Z,43.29
2019-04-27T08:22:59.844Z,43.59
2019-04-27T08:25:30.763Z,43.37
2019-04-27T08:28:13.127Z,43.10
2019-04-27T08:31:01.429Z,42.61
2019-04-27T08:33:30.535Z,43.41
2019-04-27T08:35:59.681Z,43.98
2019-04-27T08:38:29.003Z,43.61
2019-04-27T08:40:59.212Z,44.75
2019-04-27T08:43:29.041Z,44.75
2019-04-27T08:45:58.773Z,45.75
2019-04-27T08:48:34.637Z,46.13
2019-04-27T08:51:00.249Z,47.02
2019-04-27T08:53:29.909Z,47.83
2019-04-27T08:55:59.375Z,48.50
2019-04-27T08:58:28.737Z,47.79
2019-04-27T09:00:59.066Z,47.00
2019-04-27T09:03:29.425Z,48.55
2019-04-27T09:05:59.139Z,48.54
2019-04-27T09:08:49.355Z,48.33
2019-04-27T09:11:26.457Z,47.46
2019-04-27T09:14:14.577Z,47.76
2019-04-27T09:17:11.913Z,48.66
2019-04-27T09:20:03.015Z,47.66
2019-04-27T09:22:32.309Z,48.29
2019-04-27T09:25:01.461Z,48.10
2019-04-27T09:27:30.579Z,48.12
2019-04-27T09:29:59.754Z,48.90
2019-04-27T09:32:29.074Z,49.05
2019-04-27T09:34:58.220Z,45.42
2019-04-27T09:37:27.562Z,46.55
2019-04-27T09:39:56.727Z,46.74
2019-04-27T09:42:26.820Z,47.27
2019-04-27T09:44:56.087Z,46.71
2019-04-27T09:47:26.645Z,49.03
2019-04-27T09:49:56.570Z,48.75
2019-04-27T09:52:26.928Z,49.33
2019-04-27T09:54:56.544Z,49.13
2019-04-27T09:57:26.004Z,49.12
2019-04-27T09:59:56.440Z,50.33
2019-04-27T10:02:26.945Z,51.60
2019-04-27T10:04:56.560Z,51.17
2019-04-27T10:07:26.808Z,50.96
2019-04-27T10:09:56.148Z,51.27
2019-04-27T10:12:26.105Z,52.24
2019-04-27T10:14:55.993Z,53.19
2019-04-27T10:17:25.383Z,53.76
2019-04-27T10:19:54.500Z,53.88
2019-04-27T10:22:39.371Z,54.67
2019-04-27T10:24:54.474Z,53.63
2019-04-27T10:27:23.596Z,54.18
2019-04-27T10:29:52.737Z,53.64
2019-04-27T10:32:21.872Z,54.12
2019-04-27T10:34:50.992Z,54.70
2019-04-27T10:37:20.128Z,56.70
2019-04-27T10:39:49.525Z,57.88
2019-04-27T10:42:18.647Z,58.12
2019-04-27T10:44:47.810Z,59.60
2019-04-27T10:47:17.243Z,60.50
2019-04-27T10:49:48.416Z,60.00
2019-04-27T10:52:17.238Z,60.96
2019-04-27T10:54:46.541Z,61.02
2019-04-27T10:57:15.876Z,60.41
2019-04-27T10:59:46.138Z,61.83
2019-04-27T11:02:15.457Z,60.32
2019-04-27T11:05:06.856Z,62.10
2019-04-27T11:07:38.101Z,61.92
2019-04-27T11:10:08.337Z,63.03
2019-04-27T11:12:37.510Z,63.00
2019-04-27T11:15:08.230Z,62.89
2019-04-27T11:17:38.803Z,62.76
2019-04-27T11:20:09.147Z,61.92
2019-04-27T11:22:38.281Z,61.97
2019-04-27T11:25:08.344Z,62.53
2019-04-27T11:27:38.886Z,61.92
2019-04-27T11:30:09.376Z,61.84
2019-04-27T11:32:38.515Z,60.04
2019-04-27T11:35:28.405Z,59.91
2019-04-27T11:37:58.513Z,60.12
2019-04-27T11:40:27.737Z,59.49
2019-04-27T11:42:57.316Z,59.82
2019-04-27T11:45:28.513Z,59.99
2019-04-27T11:47:57.493Z,60.11
2019-04-27T11:50:26.667Z,61.08
2019-04-27T11:52:56.630Z,60.96
2019-04-27T11:55:27.364Z,61.39
2019-04-27T11:57:56.707Z,62.87
2019-04-27T12:00:27.653Z,63.46
2019-04-27T12:02:56.929Z,65.06
2019-04-27T12:05:26.191Z,65.54
2019-04-27T12:07:56.122Z,65.67
2019-04-27T12:10:26.271Z,65.85
2019-04-27T12:12:56.232Z,66.43
2019-04-27T12:15:26.415Z,66.31
2019-04-27T12:17:56.289Z,67.02
2019-04-27T12:20:25.933Z,65.93
2019-04-27T12:22:55.290Z,66.97
2019-04-27T12:25:24.413Z,67.29
2019-04-27T12:28:11.231Z,67.26
2019-04-27T12:31:04.372Z,66.26
2019-04-27T12:33:33.537Z,65.94
2019-04-27T12:36:02.657Z,66.22
2019-04-27T12:38:31.815Z,66.40
2019-04-27T12:41:01.062Z,66.36
2019-04-27T12:43:30.196Z,66.15
2019-04-27T12:45:59.447Z,66.35
2019-04-27T12:48:28.615Z,65.73
2019-04-27T12:50:57.736Z,65.48
2019-04-27T12:53:48.244Z,65.48
2019-04-27T12:56:40.579Z,65.58
2019-04-27T12:59:16.218Z,65.12
2019-04-27T13:01:46.224Z,65.03
2019-04-27T13:04:15.527Z,64.91
2019-04-27T13:06:44.674Z,65.36
2019-04-27T13:09:15.428Z,65.78
2019-04-27T13:11:45.923Z,66.69
2019-04-27T13:14:16.356Z,67.09
2019-04-27T13:16:45.734Z,67.43
2019-04-27T13:19:16.581Z,67.98
2019-04-27T13:21:46.928Z,67.34
2019-04-27T13:24:16.241Z,68.52
2019-04-27T13:26:45.708Z,69.70
2019-04-27T13:29:16.650Z,68.73
2019-04-27T13:31:45.954Z,70.29
2019-04-27T13:34:15.873Z,71.23
2019-04-27T13:36:45.700Z,69.09
2019-04-27T13:39:18.138Z,71.26
2019-04-27T13:41:47.280Z,72.97
2019-04-27T13:44:16.421Z,73.58
2019-04-27T13:47:02.988Z,73.71
2019-04-27T13:49:51.924Z,73.67
2019-04-27T13:52:23.609Z,71.77
2019-04-27T13:54:52.784Z,71.84
2019-04-27T13:57:21.961Z,71.84
2019-04-27T13:59:51.600Z,71.81
2019-04-27T14:02:21.512Z,71.65
2019-04-27T14:04:51.873Z,71.68
2019-04-27T14:07:20.996Z,71.35
2019-04-27T14:09:50.508Z,70.77
2019-04-27T14:12:21.419Z,69.92
2019-04-27T14:14:51.078Z,68.57
2019-04-27T14:17:20.315Z,68.00
2019-04-27T14:19:49.450Z,68.11
2019-04-27T14:22:18.594Z,67.00
2019-04-27T14:24:48.706Z,67.01
2019-04-27T14:27:19.397Z,67.21
2019-04-27T14:29:49.028Z,67.02
2019-04-27T14:32:18.795Z,67.54
2019-04-27T14:34:50.123Z,67.47
2019-04-27T14:37:18.832Z,67.25
2019-04-27T14:39:48.368Z,67.37
2019-04-27T14:42:19.145Z,67.27
2019-04-27T14:44:48.981Z,67.30
2019-04-27T14:47:18.792Z,67.61
2019-04-27T14:49:49.063Z,67.52
2019-04-27T14:52:18.851Z,67.88
2019-04-27T14:54:50.532Z,67.79
2019-04-27T14:57:20.389Z,67.97
2019-04-27T14:59:50.006Z,67.35
2019-04-27T15:02:19.182Z,67.17
2019-04-27T15:04:48.542Z,66.79
2019-04-27T15:07:17.717Z,67.33
2019-04-27T15:09:49.695Z,67.72
2019-04-27T15:12:17.743Z,66.76
2019-04-27T15:14:46.884Z,66.73
2019-04-27T15:17:17.718Z,67.45
2019-04-27T15:19:53.756Z,67.73
2019-04-27T15:22:27.457Z,67.65
2019-04-27T15:25:09.311Z,67.33
2019-04-27T15:27:37.434Z,67.43
2019-04-27T15:30:10.813Z,66.92
2019-04-27T15:32:54.508Z,67.93
2019-04-27T15:35:35.582Z,67.48
2019-04-27T15:38:13.915Z,67.82
2019-04-27T15:41:12.775Z,68.22
2019-04-27T15:43:43.117Z,68.43
2019-04-27T15:46:12.278Z,68.19
2019-04-27T15:48:41.417Z,67.93
2019-04-27T15:51:17.276Z,67.64
2019-04-27T15:53:45.590Z,67.32
2019-04-27T15:56:12.372Z,67.13
2019-04-27T15:58:41.479Z,66.97
2019-04-27T16:01:11.920Z,66.72
2019-04-27T16:03:42.325Z,66.94
2019-04-27T16:06:11.946Z,66.97
2019-04-27T16:08:45.370Z,67.04
2019-04-27T16:11:16.724Z,67.30
2019-04-27T16:13:42.972Z,67.46
2019-04-27T16:16:12.099Z,67.54
2019-04-27T16:18:41.221Z,67.54
2019-04-27T16:21:10.998Z,67.73
2019-04-27T16:23:43.025Z,67.54
2019-04-27T16:26:14.964Z,67.60
2019-04-27T16:28:43.038Z,68.35
2019-04-27T16:31:12.937Z,68.64
2019-04-27T16:33:42.207Z,68.95
2019-04-27T16:36:11.342Z,68.76
2019-04-27T16:39:03.626Z,69.04
2019-04-27T16:41:33.066Z,69.43
2019-04-27T16:44:02.281Z,69.14
2019-04-27T16:46:34.938Z,69.34
2019-04-27T16:49:07.342Z,69.05
2019-04-27T16:51:37.066Z,68.75
2019-04-27T16:54:05.543Z,68.81
2019-04-27T16:56:34.668Z,68.99
2019-04-27T16:59:25.929Z,69.00
2019-04-27T17:01:34.692Z,68.95
2019-04-27T17:04:06.481Z,68.95
2019-04-27T17:06:39.144Z,69.07
2019-04-27T17:09:11.339Z,69.21
2019-04-27T17:11:38.818Z,69.23
2019-04-27T17:14:19.971Z,69.20
2019-04-27T17:16:54.439Z,69.09
2019-04-27T17:19:43.852Z,69.10
2019-04-27T17:22:14.648Z,69.28
2019-04-27T17:24:47.411Z,69.25
2019-04-27T17:27:23.518Z,69.11
2019-04-27T17:29:50.077Z,68.97
2019-04-27T17:32:43.378Z,69.32
2019-04-27T17:35:14.852Z,70.15
2019-04-27T17:37:43.496Z,70.14
2019-04-27T17:40:15.300Z,70.31
2019-04-27T17:42:43.613Z,70.41
2019-04-27T17:45:13.072Z,70.53
2019-04-27T17:47:42.333Z,71.11
2019-04-27T17:50:11.672Z,71.35
2019-04-27T17:52:40.821Z,71.41
2019-04-27T17:55:09.963Z,71.48
2019-04-27T17:57:39.237Z,71.69
2019-04-27T18:00:09.993Z,71.95
2019-04-27T18:02:42.351Z,71.96
2019-04-27T18:05:13.814Z,71.96
2019-04-27T18:07:44.267Z,72.12
2019-04-27T18:10:13.342Z,71.94
2019-04-27T18:12:44.579Z,71.75
2019-04-27T18:15:14.610Z,71.60
2019-04-27T18:17:50.062Z,71.62
2019-04-27T18:20:20.295Z,71.61
2019-04-27T18:22:53.225Z,71.33
2019-04-27T18:25:22.357Z,71.41
2019-04-27T18:28:14.882Z,71.27
2019-04-27T18:31:02.569Z,71.26
2019-04-27T18:33:32.727Z,71.25
2019-04-27T18:36:05.609Z,71.29
2019-04-27T18:38:35.323Z,71.74
2019-04-27T18:41:08.144Z,72.04
2019-04-27T18:43:35.372Z,72.30
2019-04-27T18:46:04.515Z,72.34
2019-04-27T18:48:54.003Z,72.32
2019-04-27T18:51:31.416Z,72.34
2019-04-27T18:54:03.581Z,72.32
2019-04-27T18:56:33.437Z,72.40
2019-04-27T18:59:02.469Z,72.42
2019-04-27T19:01:31.602Z,72.51
2019-04-27T19:04:00.720Z,72.67
2019-04-27T19:06:29.893Z,72.71
2019-04-27T19:08:59.184Z,72.67
2019-04-27T19:11:29.084Z,72.70
2019-04-27T19:13:59.007Z,72.75
2019-04-27T19:16:29.223Z,73.21
2019-04-27T19:18:58.563Z,73.46
2019-04-27T19:21:28.873Z,73.61
2019-04-27T19:23:58.575Z,73.59
2019-04-27T19:26:39.095Z,73.53
2019-04-27T19:29:14.816Z,73.52
2019-04-27T19:31:53.841Z,73.43
2019-04-27T19:34:23.003Z,73.49
2019-04-27T19:36:52.229Z,73.35
2019-04-27T19:39:21.350Z,73.32
2019-04-27T19:41:57.987Z,73.47
2019-04-27T19:44:21.390Z,73.41
2019-04-27T19:46:50.529Z,73.49
2019-04-27T19:49:19.659Z,73.62
2019-04-27T19:51:48.827Z,73.47
2019-04-27T19:54:17.963Z,73.38
2019-04-27T19:56:47.105Z,73.34
2019-04-27T19:59:21.507Z,73.27
2019-04-27T20:01:51.673Z,73.41
2019-04-27T20:04:39.758Z,73.43
2019-04-27T20:07:10.597Z,73.35
2019-04-27T20:10:00.023Z,73.49
2019-04-27T20:12:31.156Z,73.55
2019-04-27T20:15:02.083Z,73.56
2019-04-27T20:17:32.199Z,73.63
2019-04-27T20:20:02.082Z,73.56
2019-04-27T20:22:31.351Z,73.47
2019-04-27T20:25:01.865Z,73.30
2019-04-27T20:27:45.073Z,73.10
2019-04-27T20:30:03.171Z,72.89
2019-04-27T20:32:32.561Z,72.85
2019-04-27T20:35:01.863Z,73.07
2019-04-27T20:37:31.448Z,73.05
2019-04-27T20:40:01.692Z,73.04
2019-04-27T20:42:31.563Z,73.29
2019-04-27T20:45:01.952Z,73.49
2019-04-27T20:47:31.737Z,73.71
2019-04-27T20:50:00.902Z,73.81
2019-04-27T20:52:36.202Z,74.15
2019-04-27T20:55:05.962Z,74.49
2019-04-27T20:57:35.077Z,74.71
2019-04-27T21:00:04.723Z,74.81
2019-04-27T21:02:43.013Z,74.82
2019-04-27T21:05:37.176Z,75.02
2019-04-27T21:08:07.264Z,75.13
2019-04-27T21:10:36.448Z,75.29
2019-04-27T21:13:05.620Z,75.25
2019-04-27T21:15:34.742Z,75.16
2019-04-27T21:18:03.870Z,75.10
2019-04-27T21:20:33.290Z,75.25
2019-04-27T21:23:02.556Z,75.25
2019-04-27T21:25:33.561Z,75.42
2019-04-27T21:28:14.934Z,75.56
2019-04-27T21:30:33.412Z,75.52
2019-04-27T21:33:02.555Z,75.27
2019-04-27T21:35:31.658Z,75.37
2019-04-27T21:38:03.113Z,75.51
2019-04-27T21:40:31.766Z,75.53
2019-04-27T21:43:01.229Z,75.49
2019-04-27T21:45:31.761Z,75.41
2019-04-27T21:48:01.034Z,75.46
2019-04-27T21:50:31.507Z,75.52
2019-04-27T21:53:06.448Z,75.47
2019-04-27T21:55:35.986Z,75.54
2019-04-27T21:58:05.347Z,75.61
2019-04-27T22:00:53.562Z,75.83
2019-04-27T22:03:27.481Z,75.80
2019-04-27T22:05:56.624Z,75.75
2019-04-27T22:08:25.788Z,75.70
2019-04-27T22:10:54.924Z,75.57
2019-04-27T22:13:24.052Z,75.61
2019-04-27T22:15:53.191Z,75.54
2019-04-27T22:18:22.284Z,75.48
2019-04-27T22:20:51.419Z,75.40
2019-04-27T22:23:26.364Z,75.63
2019-04-27T22:25:55.506Z,75.71
2019-04-27T22:28:24.671Z,75.50
2019-04-27T22:30:53.824Z,75.61
2019-04-27T22:33:22.964Z,75.26
2019-04-27T22:35:52.213Z,74.78
2019-04-27T22:38:21.347Z,74.71
2019-04-27T22:41:24.881Z,74.65
2019-04-27T22:44:28.202Z,74.60
2019-04-27T22:46:57.563Z,74.42
2019-04-27T22:49:26.704Z,74.45
2019-04-27T22:51:55.876Z,74.39
2019-04-27T22:54:25.017Z,74.39
2019-04-27T22:56:55.935Z,74.56
2019-04-27T22:59:33.883Z,74.48
2019-04-27T23:02:21.739Z,74.65
2019-04-27T23:04:56.566Z,74.92
2019-04-27T23:07:24.899Z,74.58
2019-04-27T23:09:54.040Z,74.42
2019-04-27T23:12:23.190Z,74.19
2019-04-27T23:14:52.335Z,73.99
2019-04-27T23:17:41.596Z,74.07
2019-04-27T23:20:11.601Z,73.92
2019-04-27T23:22:40.705Z,74.21
2019-04-27T23:25:11.237Z,74.40
2019-04-27T23:27:41.005Z,74.39
2019-04-27T23:30:11.364Z,74.20
2019-04-27T23:32:43.583Z,74.07
2019-04-27T23:35:12.709Z,74.16
2019-04-27T23:37:41.833Z,73.90
2019-04-27T23:40:11.367Z,73.80
2019-04-27T23:42:41.677Z,73.92
2019-04-27T23:45:10.892Z,73.95
2019-04-27T23:47:40.017Z,74.15
2019-04-27T23:50:10.951Z,74.17
2019-04-27T23:52:57.948Z,74.21
2019-04-27T23:55:30.983Z,73.95
2019-04-27T23:58:00.149Z,73.82
